sensor_id;sensor_type;location;lat;lon;timestamp;pressure;altitude;pressure_sealevel;temperature;humidity
3796;BME280;1913;50.660;7.834;2023-06-26T00:02:11;153176.88;;;20.79;97.40
3796;BME280;1913;50.660;7.834;2023-06-26T00:04:49;153202.19;;;20.89;93.68
3796;BME280;1913;50.660;7.834;2023-06-26T00:07:20;153199.59;;;20.88;96.01
3796;BME280;1913;50.660;7.834;2023-06-26T00:09:49;153197.09;;;20.87;96.10
3796;BME280;1913;50.660;7.834;2023-06-26T00:12:32;153184.47;;;20.82;96.52
3796;BME280;1913;50.660;7.834;2023-06-26T00:14:58;153199.59;;;20.88;94.45
3796;BME280;1913;50.660;7.834;2023-06-26T00:17:41;153168.03;;;20.75;97.01
3796;BME280;1913;50.660;7.834;2023-06-26T00:20:07;153119.94;;;20.56;99.87
3796;BME280;1913;50.660;7.834;2023-06-26T00:22:53;153141.47;;;20.65;98.68
3796;BME280;1913;50.660;7.834;2023-06-26T00:25:20;153152.84;;;20.69;97.19
3796;BME280;1913;50.660;7.834;2023-06-26T00:27:46;153150.31;;;20.68;97.43
3796;BME280;1913;50.660;7.834;2023-06-26T00:30:12;153160.44;;;20.72;96.32
3796;BME280;1913;50.660;7.834;2023-06-26T00:32:37;153147.81;;;20.67;96.33
3796;BME280;1913;50.660;7.834;2023-06-26T00:35:22;153152.84;;;20.69;96.31
3796;BME280;1913;50.660;7.834;2023-06-26T00:37:48;153119.94;;;20.56;99.60
3796;BME280;1913;50.660;7.834;2023-06-26T00:40:34;153127.53;;;20.59;98.06
3796;BME280;1913;50.660;7.834;2023-06-26T00:42:59;153103.50;;;20.49;98.69
3796;BME280;1913;50.660;7.834;2023-06-26T00:45:25;153095.91;;;20.46;100.00
3796;BME280;1913;50.660;7.834;2023-06-26T00:47:50;153071.88;;;20.37;100.00
3796;BME280;1913;50.660;7.834;2023-06-26T00:50:26;153065.53;;;20.34;100.00
3796;BME280;1913;50.660;7.834;2023-06-26T00:53:12;153052.91;;;20.29;100.00
3796;BME280;1913;50.660;7.834;2023-06-26T00:55:58;153085.78;;;20.42;98.49
3796;BME280;1913;50.660;7.834;2023-06-26T00:58:44;153109.84;;;20.52;100.00
3796;BME280;1913;50.660;7.834;2023-06-26T01:01:29;153108.56;;;20.51;98.10
3796;BME280;1913;50.660;7.834;2023-06-26T01:04:00;153078.19;;;20.39;99.38
3796;BME280;1913;50.660;7.834;2023-06-26T01:06:46;153060.50;;;20.32;100.00
3796;BME280;1913;50.660;7.834;2023-06-26T01:09:26;153075.63;;;20.38;100.00
3796;BME280;1913;50.660;7.834;2023-06-26T01:12:12;153071.88;;;20.37;99.32
3796;BME280;1913;50.660;7.834;2023-06-26T01:14:57;153073.13;;;20.37;100.00
3796;BME280;1913;50.660;7.834;2023-06-26T01:17:43;153050.38;;;20.28;100.00
3796;BME280;1913;50.660;7.834;2023-06-26T01:20:37;153037.72;;;20.23;100.00
3796;BME280;1913;50.660;7.834;2023-06-26T01:23:30;153023.84;;;20.17;100.00
3796;BME280;1913;50.660;7.834;2023-06-26T01:26:22;153016.25;;;20.14;100.00
3796;BME280;1913;50.660;7.834;2023-06-26T01:29:09;153027.63;;;20.19;100.00
3796;BME280;1913;50.660;7.834;2023-06-26T01:31:55;152994.72;;;20.05;100.00
3796;BME280;1913;50.660;7.834;2023-06-26T01:34:42;153009.91;;;20.12;100.00
3796;BME280;1913;50.660;7.834;2023-06-26T01:37:27;152990.97;;;20.04;100.00
3796;BME280;1913;50.660;7.834;2023-06-26T01:40:13;152999.81;;;20.07;100.00
3796;BME280;1913;50.660;7.834;2023-06-26T01:42:58;153004.84;;;20.09;100.00
3796;BME280;1913;50.660;7.834;2023-06-26T01:45:46;152994.72;;;20.05;100.00
3796;BME280;1913;50.660;7.834;2023-06-26T01:48:40;152969.44;;;19.95;100.00
3796;BME280;1913;50.660;7.834;2023-06-26T01:51:24;152966.94;;;19.94;100.00
3796;BME280;1913;50.660;7.834;2023-06-26T01:54:17;152947.97;;;19.87;100.00
3796;BME280;1913;50.660;7.834;2023-06-26T01:57:05;152939.13;;;19.83;100.00
3796;BME280;1913;50.660;7.834;2023-06-26T01:59:52;152931.53;;;19.80;100.00
3796;BME280;1913;50.660;7.834;2023-06-26T02:02:40;152902.47;;;19.68;100.00
3796;BME280;1913;50.660;7.834;2023-06-26T02:05:26;152893.63;;;19.65;100.00
3796;BME280;1913;50.660;7.834;2023-06-26T02:08:14;152884.75;;;19.61;100.00
3796;BME280;1913;50.660;7.834;2023-06-26T02:10:59;152860.72;;;19.51;100.00
3796;BME280;1913;50.660;7.834;2023-06-26T02:13:45;152875.91;;;19.57;100.00
3796;BME280;1913;50.660;7.834;2023-06-26T02:16:30;152860.72;;;19.51;100.00
3796;BME280;1913;50.660;7.834;2023-06-26T02:19:16;152879.66;;;19.59;100.00
3796;BME280;1913;50.660;7.834;2023-06-26T02:22:06;152858.19;;;19.50;100.00
3796;BME280;1913;50.660;7.834;2023-06-26T02:24:51;152849.34;;;19.47;100.00
3796;BME280;1913;50.660;7.834;2023-06-26T02:27:32;152856.94;;;19.50;100.00
3796;BME280;1913;50.660;7.834;2023-06-26T02:30:18;152849.34;;;19.47;100.00
3796;BME280;1913;50.660;7.834;2023-06-26T02:33:03;152863.22;;;19.52;100.00
3796;BME280;1913;50.660;7.834;2023-06-26T02:35:48;152853.13;;;19.48;100.00
3796;BME280;1913;50.660;7.834;2023-06-26T02:38:35;152860.72;;;19.51;100.00
3796;BME280;1913;50.660;7.834;2023-06-26T02:41:21;152878.41;;;19.58;100.00
3796;BME280;1913;50.660;7.834;2023-06-26T02:44:06;152841.78;;;19.44;100.00
3796;BME280;1913;50.660;7.834;2023-06-26T02:46:52;152845.53;;;19.45;100.00
3796;BME280;1913;50.660;7.834;2023-06-26T02:49:37;152834.19;;;19.41;100.00
3796;BME280;1913;50.660;7.834;2023-06-26T02:52:22;152796.28;;;19.25;100.00
3796;BME280;1913;50.660;7.834;2023-06-26T02:55:08;152811.41;;;19.31;99.81
3796;BME280;1913;50.660;7.834;2023-06-26T02:57:53;152791.22;;;19.23;100.00
3796;BME280;1913;50.660;7.834;2023-06-26T03:00:38;152807.66;;;19.30;98.98
3796;BME280;1913;50.660;7.834;2023-06-26T03:03:26;152820.25;;;19.35;99.78
3796;BME280;1913;50.660;7.834;2023-06-26T03:05:58;152791.22;;;19.23;100.00
3796;BME280;1913;50.660;7.834;2023-06-26T03:08:43;152797.53;;;19.26;100.00
3796;BME280;1913;50.660;7.834;2023-06-26T03:11:28;152810.16;;;19.31;97.54
3796;BME280;1913;50.660;7.834;2023-06-26T03:14:14;152806.38;;;19.29;98.85
3796;BME280;1913;50.660;7.834;2023-06-26T03:17:00;152898.66;;;19.67;89.17
3796;BME280;1913;50.660;7.834;2023-06-26T03:19:48;152922.69;;;19.76;91.71
3796;BME280;1913;50.660;7.834;2023-06-26T03:22:33;152956.81;;;19.90;91.16
3796;BME280;1913;50.660;7.834;2023-06-26T03:25:19;152990.97;;;20.04;86.61
3796;BME280;1913;50.660;7.834;2023-06-26T03:28:04;153015.00;;;20.14;85.00
3796;BME280;1913;50.660;7.834;2023-06-26T03:30:50;153023.84;;;20.17;84.83
3796;BME280;1913;50.660;7.834;2023-06-26T03:33:36;153035.22;;;20.22;84.96
3796;BME280;1913;50.660;7.834;2023-06-26T03:36:21;153074.38;;;20.38;79.36
3796;BME280;1913;50.660;7.834;2023-06-26T03:39:07;153088.31;;;20.43;80.10
3796;BME280;1913;50.660;7.834;2023-06-26T03:41:52;153088.31;;;20.43;80.33
3796;BME280;1913;50.660;7.834;2023-06-26T03:44:38;153108.56;;;20.51;78.77
3796;BME280;1913;50.660;7.834;2023-06-26T03:47:23;153127.53;;;20.59;77.52
3796;BME280;1913;50.660;7.834;2023-06-26T03:50:09;153149.06;;;20.68;77.95
3796;BME280;1913;50.660;7.834;2023-06-26T03:52:54;153133.88;;;20.62;79.96
3796;BME280;1913;50.660;7.834;2023-06-26T03:55:40;153140.22;;;20.64;78.11
3796;BME280;1913;50.660;7.834;2023-06-26T03:58:25;153126.28;;;20.59;76.62
3796;BME280;1913;50.660;7.834;2023-06-26T04:01:10;153141.47;;;20.65;75.83
3796;BME280;1913;50.660;7.834;2023-06-26T04:03:56;153164.19;;;20.74;76.19
3796;BME280;1913;50.660;7.834;2023-06-26T04:06:41;153122.50;;;20.57;78.30
3796;BME280;1913;50.660;7.834;2023-06-26T04:09:06;153133.88;;;20.62;80.35
3796;BME280;1913;50.660;7.834;2023-06-26T04:11:32;153149.06;;;20.68;79.34
3796;BME280;1913;50.660;7.834;2023-06-26T04:13:57;153133.88;;;20.62;80.03
3796;BME280;1913;50.660;7.834;2023-06-26T04:16:23;153132.63;;;20.61;78.51
3796;BME280;1913;50.660;7.834;2023-06-26T04:18:52;153128.78;;;20.60;81.96
3796;BME280;1913;50.660;7.834;2023-06-26T04:21:18;153125.03;;;20.58;83.61
3796;BME280;1913;50.660;7.834;2023-06-26T04:23:44;153121.25;;;20.56;85.47
3796;BME280;1913;50.660;7.834;2023-06-26T04:26:09;153116.16;;;20.54;88.14
3796;BME280;1913;50.660;7.834;2023-06-26T04:28:38;153128.78;;;20.60;80.58
3796;BME280;1913;50.660;7.834;2023-06-26T04:31:03;153205.94;;;20.91;82.75
3796;BME280;1913;50.660;7.834;2023-06-26T04:33:29;153316.06;;;21.35;79.81
3796;BME280;1913;50.660;7.834;2023-06-26T04:35:54;153440.06;;;21.85;78.50
3796;BME280;1913;50.660;7.834;2023-06-26T04:38:21;153543.91;;;22.27;78.10
3796;BME280;1913;50.660;7.834;2023-06-26T04:40:47;153678.09;;;22.81;75.04
3796;BME280;1913;50.660;7.834;2023-06-26T04:43:12;153702.13;;;22.91;74.56
3796;BME280;1913;50.660;7.834;2023-06-26T04:45:38;153750.31;;;23.10;75.16
3796;BME280;1913;50.660;7.834;2023-06-26T04:48:03;153942.88;;;23.88;68.93
3796;BME280;1913;50.660;7.834;2023-06-26T04:50:30;154018.88;;;24.19;67.62
3796;BME280;1913;50.660;7.834;2023-06-26T04:52:56;154102.59;;;24.52;64.92
3796;BME280;1913;50.660;7.834;2023-06-26T04:55:25;154225.53;;;25.02;61.32
3796;BME280;1913;50.660;7.834;2023-06-26T04:57:51;154333.34;;;25.45;57.77
3796;BME280;1913;50.660;7.834;2023-06-26T05:00:17;154452.56;;;25.93;54.21
3796;BME280;1913;50.660;7.834;2023-06-26T05:02:42;154573.09;;;26.42;52.32
3796;BME280;1913;50.660;7.834;2023-06-26T05:05:08;154678.44;;;26.84;49.53
3796;BME280;1913;50.660;7.834;2023-06-26T05:07:34;154758.44;;;27.16;51.60
3796;BME280;1913;50.660;7.834;2023-06-26T05:09:59;154807.97;;;27.36;54.68
3796;BME280;1913;50.660;7.834;2023-06-26T05:12:25;154876.47;;;27.64;51.83
3796;BME280;1913;50.660;7.834;2023-06-26T05:14:50;154945.06;;;27.91;51.57
3796;BME280;1913;50.660;7.834;2023-06-26T05:17:15;154919.69;;;27.81;47.48
3796;BME280;1913;50.660;7.834;2023-06-26T05:19:41;154866.31;;;27.60;46.03
3796;BME280;1913;50.660;7.834;2023-06-26T05:22:07;154928.56;;;27.85;50.77
3796;BME280;1913;50.660;7.834;2023-06-26T05:24:35;154814.28;;;27.39;46.43
3796;BME280;1913;50.660;7.834;2023-06-26T05:27:01;154852.38;;;27.54;46.13
3796;BME280;1913;50.660;7.834;2023-06-26T05:29:27;154745.72;;;27.11;45.20
3796;BME280;1913;50.660;7.834;2023-06-26T05:31:53;154665.78;;;26.79;46.43
3796;BME280;1913;50.660;7.834;2023-06-26T05:34:22;154599.78;;;26.53;49.08
3796;BME280;1913;50.660;7.834;2023-06-26T05:36:50;154622.63;;;26.62;49.85
3796;BME280;1913;50.660;7.834;2023-06-26T05:39:16;154743.16;;;27.10;49.23
3796;BME280;1913;50.660;7.834;2023-06-26T05:41:44;154672.09;;;26.82;49.88
3796;BME280;1913;50.660;7.834;2023-06-26T05:44:10;154739.38;;;27.09;49.32
3796;BME280;1913;50.660;7.834;2023-06-26T05:46:36;154687.34;;;26.88;52.49
3796;BME280;1913;50.660;7.834;2023-06-26T05:49:01;154594.72;;;26.50;52.73
3796;BME280;1913;50.660;7.834;2023-06-26T05:51:27;154481.78;;;26.05;55.74
3796;BME280;1913;50.660;7.834;2023-06-26T05:53:53;154434.81;;;25.86;56.46
3796;BME280;1913;50.660;7.834;2023-06-26T05:56:19;154343.47;;;25.49;60.45
3796;BME280;1913;50.660;7.834;2023-06-26T05:58:45;154404.34;;;25.74;63.36
3796;BME280;1913;50.660;7.834;2023-06-26T06:01:11;154399.25;;;25.72;65.00
3796;BME280;1913;50.660;7.834;2023-06-26T06:03:36;154418.38;;;25.79;65.29
3796;BME280;1913;50.660;7.834;2023-06-26T06:06:03;154434.81;;;25.86;67.38
3796;BME280;1913;50.660;7.834;2023-06-26T06:08:28;154328.25;;;25.43;69.52
3796;BME280;1913;50.660;7.834;2023-06-26T06:10:54;154263.59;;;25.17;72.25
3796;BME280;1913;50.660;7.834;2023-06-26T06:13:19;154278.84;;;25.23;74.69
3796;BME280;1913;50.660;7.834;2023-06-26T06:15:44;154273.75;;;25.21;77.76
3796;BME280;1913;50.660;7.834;2023-06-26T06:18:10;154182.44;;;24.84;78.45
3796;BME280;1913;50.660;7.834;2023-06-26T06:20:35;154239.47;;;25.07;80.91
3796;BME280;1913;50.660;7.834;2023-06-26T06:23:01;154240.72;;;25.08;80.20
3796;BME280;1913;50.660;7.834;2023-06-26T06:25:26;154356.19;;;25.54;75.06
3796;BME280;1913;50.660;7.834;2023-06-26T06:27:51;154301.63;;;25.32;77.67
3796;BME280;1913;50.660;7.834;2023-06-26T06:30:17;154344.75;;;25.50;76.02
3796;BME280;1913;50.660;7.834;2023-06-26T06:32:42;154529.94;;;26.24;72.33
3796;BME280;1913;50.660;7.834;2023-06-26T06:35:08;154357.44;;;25.55;77.02
3796;BME280;1913;50.660;7.834;2023-06-26T06:37:36;154486.81;;;26.07;70.39
3796;BME280;1913;50.660;7.834;2023-06-26T06:40:03;154533.78;;;26.26;71.34
3796;BME280;1913;50.660;7.834;2023-06-26T06:42:29;154436.13;;;25.87;69.26
3796;BME280;1913;50.660;7.834;2023-06-26T06:44:54;154484.31;;;26.06;70.23
3796;BME280;1913;50.660;7.834;2023-06-26T06:47:20;154477.94;;;26.03;68.59
3796;BME280;1913;50.660;7.834;2023-06-26T06:49:46;154590.91;;;26.49;68.76
3796;BME280;1913;50.660;7.834;2023-06-26T06:52:11;154547.72;;;26.32;66.94
3796;BME280;1913;50.660;7.834;2023-06-26T06:54:56;154552.81;;;26.34;67.09
3796;BME280;1913;50.660;7.834;2023-06-26T06:57:26;154627.69;;;26.64;65.00
3796;BME280;1913;50.660;7.834;2023-06-26T06:59:52;154465.28;;;25.98;68.82
3796;BME280;1913;50.660;7.834;2023-06-26T07:02:17;154243.28;;;25.09;74.84
3796;BME280;1913;50.660;7.834;2023-06-26T07:04:43;154053.09;;;24.32;83.89
3796;BME280;1913;50.660;7.834;2023-06-26T07:07:08;153992.28;;;24.08;88.84
3796;BME280;1913;50.660;7.834;2023-06-26T07:09:35;153863.03;;;23.56;94.31
3796;BME280;1913;50.660;7.834;2023-06-26T07:12:00;153942.88;;;23.88;90.19
3796;BME280;1913;50.660;7.834;2023-06-26T07:14:28;154072.16;;;24.40;88.64
3796;BME280;1913;50.660;7.834;2023-06-26T07:16:53;154179.91;;;24.83;84.28
3796;BME280;1913;50.660;7.834;2023-06-26T07:19:18;154305.47;;;25.34;82.10
3796;BME280;1913;50.660;7.834;2023-06-26T07:21:44;154411.97;;;25.77;76.12
3796;BME280;1913;50.660;7.834;2023-06-26T07:24:10;154513.47;;;26.18;72.00
3796;BME280;1913;50.660;7.834;2023-06-26T07:26:36;154290.22;;;25.28;76.29
3796;BME280;1913;50.660;7.834;2023-06-26T07:29:01;154359.97;;;25.56;78.91
3796;BME280;1913;50.660;7.834;2023-06-26T07:31:26;154324.47;;;25.42;76.29
3796;BME280;1913;50.660;7.834;2023-06-26T07:33:51;154359.97;;;25.56;75.54
3796;BME280;1913;50.660;7.834;2023-06-26T07:36:17;154453.88;;;25.94;74.59
3796;BME280;1913;50.660;7.834;2023-06-26T07:38:42;154513.47;;;26.18;73.97
3796;BME280;1913;50.660;7.834;2023-06-26T07:41:08;154461.44;;;25.97;73.19
3796;BME280;1913;50.660;7.834;2023-06-26T07:43:33;154410.72;;;25.76;76.31
3796;BME280;1913;50.660;7.834;2023-06-26T07:45:58;154163.44;;;24.77;85.08
3796;BME280;1913;50.660;7.834;2023-06-26T07:48:24;154146.94;;;24.70;89.16
3796;BME280;1913;50.660;7.834;2023-06-26T07:50:50;154182.44;;;24.84;87.19
3796;BME280;1913;50.660;7.834;2023-06-26T07:53:16;154363.75;;;25.58;82.70
3796;BME280;1913;50.660;7.834;2023-06-26T07:55:42;154508.41;;;26.16;76.53
3796;BME280;1913;50.660;7.834;2023-06-26T07:58:08;154585.84;;;26.47;77.70
3796;BME280;1913;50.660;7.834;2023-06-26T08:00:33;154694.94;;;26.91;69.35
3796;BME280;1913;50.660;7.834;2023-06-26T08:02:59;154655.59;;;26.75;69.52
3796;BME280;1913;50.660;7.834;2023-06-26T08:05:24;154692.44;;;26.90;72.45
3796;BME280;1913;50.660;7.834;2023-06-26T08:07:50;154464.03;;;25.98;71.45
3796;BME280;1913;50.660;7.834;2023-06-26T08:10:15;154361.22;;;25.56;79.59
3796;BME280;1913;50.660;7.834;2023-06-26T08:12:41;154275.00;;;25.22;83.55
3796;BME280;1913;50.660;7.834;2023-06-26T08:15:08;154053.09;;;24.32;95.12
3796;BME280;1913;50.660;7.834;2023-06-26T08:17:35;153898.56;;;23.70;100.00
3796;BME280;1913;50.660;7.834;2023-06-26T08:20:01;153807.28;;;23.33;100.00
3796;BME280;1913;50.660;7.834;2023-06-26T08:22:28;153598.34;;;22.49;100.00
3796;BME280;1913;50.660;7.834;2023-06-26T08:24:53;153541.34;;;22.26;100.00
3796;BME280;1913;50.660;7.834;2023-06-26T08:27:19;153464.06;;;21.95;100.00
3796;BME280;1913;50.660;7.834;2023-06-26T08:29:44;153422.34;;;21.78;100.00
3796;BME280;1913;50.660;7.834;2023-06-26T08:32:11;153412.22;;;21.74;100.00
3796;BME280;1913;50.660;7.834;2023-06-26T08:34:38;153535.06;;;22.23;100.00
3796;BME280;1913;50.660;7.834;2023-06-26T08:37:04;153688.22;;;22.85;100.00
3796;BME280;1913;50.660;7.834;2023-06-26T08:39:29;153859.22;;;23.54;100.00
3796;BME280;1913;50.660;7.834;2023-06-26T08:41:54;153969.50;;;23.99;100.00
3796;BME280;1913;50.660;7.834;2023-06-26T08:44:20;154077.25;;;24.42;100.00
3796;BME280;1913;50.660;7.834;2023-06-26T08:46:51;154278.84;;;25.23;100.00
3796;BME280;1913;50.660;7.834;2023-06-26T08:52:22;154475.41;;;26.02;92.26
3796;BME280;1913;50.660;7.834;2023-06-26T08:54:54;154628.94;;;26.64;92.08
3796;BME280;1913;50.660;7.834;2023-06-26T08:57:22;154574.34;;;26.42;84.87
3796;BME280;1913;50.660;7.834;2023-06-26T08:59:48;154603.63;;;26.54;87.00
3796;BME280;1913;50.660;7.834;2023-06-26T09:02:14;154799.06;;;27.33;83.18
3796;BME280;1913;50.660;7.834;2023-06-26T09:04:40;154853.66;;;27.55;82.31
3796;BME280;1913;50.660;7.834;2023-06-26T09:07:06;154983.16;;;28.07;75.54
3796;BME280;1913;50.660;7.834;2023-06-26T09:09:32;155021.28;;;28.22;73.09
3796;BME280;1913;50.660;7.834;2023-06-26T09:11:57;154729.22;;;27.05;73.55
3796;BME280;1913;50.660;7.834;2023-06-26T09:14:23;154805.38;;;27.35;72.88
3796;BME280;1913;50.660;7.834;2023-06-26T09:16:48;154665.78;;;26.79;79.05
3796;BME280;1913;50.660;7.834;2023-06-26T09:19:14;154524.91;;;26.22;83.39
3796;BME280;1913;50.660;7.834;2023-06-26T09:21:40;154689.84;;;26.89;86.32
3796;BME280;1913;50.660;7.834;2023-06-26T09:24:07;154550.28;;;26.33;86.56
3796;BME280;1913;50.660;7.834;2023-06-26T09:26:37;154462.75;;;25.97;89.20
3796;BME280;1913;50.660;7.834;2023-06-26T09:29:03;154461.44;;;25.97;89.65
3796;BME280;1913;50.660;7.834;2023-06-26T09:31:29;154414.50;;;25.78;93.33
3796;BME280;1913;50.660;7.834;2023-06-26T09:33:58;154392.97;;;25.69;90.91
3796;BME280;1913;50.660;7.834;2023-06-26T09:36:27;154460.19;;;25.96;88.45
3796;BME280;1913;50.660;7.834;2023-06-26T09:38:53;154447.53;;;25.91;89.08
3796;BME280;1913;50.660;7.834;2023-06-26T09:41:18;154636.56;;;26.67;84.85
3796;BME280;1913;50.660;7.834;2023-06-26T09:43:50;154736.84;;;27.08;73.66
3796;BME280;1913;50.660;7.834;2023-06-26T09:46:25;154612.50;;;26.58;75.37
3796;BME280;1913;50.660;7.834;2023-06-26T09:51:24;154673.34;;;26.82;73.29
3796;BME280;1913;50.660;7.834;2023-06-26T09:53:49;154730.47;;;27.05;67.75
3796;BME280;1913;50.660;7.834;2023-06-26T09:56:15;154702.56;;;26.94;66.74
3796;BME280;1913;50.660;7.834;2023-06-26T09:58:44;154543.94;;;26.30;68.45
3796;BME280;1913;50.660;7.834;2023-06-26T10:01:10;154489.41;;;26.08;72.41
3796;BME280;1913;50.660;7.834;2023-06-26T10:03:35;154363.75;;;25.58;69.04
3796;BME280;1913;50.660;7.834;2023-06-26T10:06:02;154405.63;;;25.74;70.22
3796;BME280;1913;50.660;7.834;2023-06-26T10:08:28;154385.34;;;25.66;71.89
3796;BME280;1913;50.660;7.834;2023-06-26T10:10:56;154301.63;;;25.32;78.02
3796;BME280;1913;50.660;7.834;2023-06-26T10:13:27;154304.19;;;25.34;79.31
3796;BME280;1913;50.660;7.834;2023-06-26T10:15:55;154401.81;;;25.73;73.49
3796;BME280;1913;50.660;7.834;2023-06-26T10:18:24;154517.28;;;26.19;67.91
3796;BME280;1913;50.660;7.834;2023-06-26T10:20:51;154476.69;;;26.03;65.98
3796;BME280;1913;50.660;7.834;2023-06-26T10:23:19;154452.56;;;25.93;70.50
3796;BME280;1913;50.660;7.834;2023-06-26T10:25:46;154306.72;;;25.35;73.49
3796;BME280;1913;50.660;7.834;2023-06-26T10:28:14;154229.31;;;25.03;79.21
3796;BME280;1913;50.660;7.834;2023-06-26T10:30:42;154381.50;;;25.65;78.61
3796;BME280;1913;50.660;7.834;2023-06-26T10:33:09;154485.56;;;26.07;72.18
3796;BME280;1913;50.660;7.834;2023-06-26T10:35:42;154433.56;;;25.86;72.12
3796;BME280;1913;50.660;7.834;2023-06-26T10:38:08;154555.34;;;26.35;74.94
3796;BME280;1913;50.660;7.834;2023-06-26T10:40:44;154620.06;;;26.61;64.49
3796;BME280;1913;50.660;7.834;2023-06-26T10:43:12;154490.66;;;26.09;70.62
3796;BME280;1913;50.660;7.834;2023-06-26T10:45:48;154378.97;;;25.64;63.96
3796;BME280;1913;50.660;7.834;2023-06-26T10:48:19;154404.34;;;25.74;65.22
3796;BME280;1913;50.660;7.834;2023-06-26T10:50:49;154576.94;;;26.43;66.67
3796;BME280;1913;50.660;7.834;2023-06-26T10:56:01;154797.81;;;27.32;56.68
3796;BME280;1913;50.660;7.834;2023-06-26T10:58:29;155007.28;;;28.16;51.73
3796;BME280;1913;50.660;7.834;2023-06-26T11:01:18;154865.06;;;27.59;48.38
3796;BME280;1913;50.660;7.834;2023-06-26T11:03:46;154838.41;;;27.49;48.51
3796;BME280;1913;50.660;7.834;2023-06-26T11:06:14;154832.03;;;27.46;50.61
3796;BME280;1913;50.660;7.834;2023-06-26T11:09:15;154763.53;;;27.18;50.92
3796;BME280;1913;50.660;7.834;2023-06-26T11:14:23;154773.69;;;27.23;55.41
3796;BME280;1913;50.660;7.834;2023-06-26T11:16:49;154887.91;;;27.68;53.97
3796;BME280;1913;50.660;7.834;2023-06-26T11:19:16;154873.94;;;27.63;47.01
3796;BME280;1913;50.660;7.834;2023-06-26T11:21:42;154971.75;;;28.02;48.26
3796;BME280;1913;50.660;7.834;2023-06-26T11:24:08;155177.50;;;28.85;46.64
3796;BME280;1913;50.660;7.834;2023-06-26T11:26:42;155209.28;;;28.98;44.44
3796;BME280;1913;50.660;7.834;2023-06-26T11:29:08;155210.53;;;28.98;42.98
3796;BME280;1913;50.660;7.834;2023-06-26T11:31:36;155169.91;;;28.82;41.51
3796;BME280;1913;50.660;7.834;2023-06-26T11:34:06;155031.44;;;28.26;42.33
3796;BME280;1913;50.660;7.834;2023-06-26T11:36:32;154934.94;;;27.87;44.42
3796;BME280;1913;50.660;7.834;2023-06-26T11:39:06;155069.56;;;28.42;47.84
3796;BME280;1913;50.660;7.834;2023-06-26T11:41:33;154990.78;;;28.10;43.55
3796;BME280;1913;50.660;7.834;2023-06-26T11:44:06;155074.66;;;28.44;43.13
3796;BME280;1913;50.660;7.834;2023-06-26T11:46:36;155002.22;;;28.14;43.66
3796;BME280;1913;50.660;7.834;2023-06-26T11:49:06;155007.28;;;28.16;46.29
3796;BME280;1913;50.660;7.834;2023-06-26T11:51:32;155158.44;;;28.77;44.37
3796;BME280;1913;50.660;7.834;2023-06-26T11:54:01;155145.78;;;28.72;42.44
3796;BME280;1913;50.660;7.834;2023-06-26T11:56:28;155263.94;;;29.20;41.69
3796;BME280;1913;50.660;7.834;2023-06-26T11:59:05;155141.94;;;28.71;40.43
3796;BME280;1913;50.660;7.834;2023-06-26T12:01:38;155204.16;;;28.96;41.03
3796;BME280;1913;50.660;7.834;2023-06-26T12:04:06;155195.28;;;28.92;40.20
3796;BME280;1913;50.660;7.834;2023-06-26T12:06:34;155149.56;;;28.74;41.64
3796;BME280;1913;50.660;7.834;2023-06-26T12:09:05;155152.13;;;28.75;42.53
3796;BME280;1913;50.660;7.834;2023-06-26T12:11:31;155114.00;;;28.59;41.05
3796;BME280;1913;50.660;7.834;2023-06-26T12:13:57;155243.63;;;29.11;40.53
3796;BME280;1913;50.660;7.834;2023-06-26T12:16:22;155220.75;;;29.02;39.46
3796;BME280;1913;50.660;7.834;2023-06-26T12:18:48;155366.91;;;29.61;38.36
3796;BME280;1913;50.660;7.834;2023-06-26T12:24:09;155036.53;;;28.28;38.11
3796;BME280;1913;50.660;7.834;2023-06-26T12:26:35;154759.69;;;27.17;40.22
3796;BME280;1913;50.660;7.834;2023-06-26T12:29:06;154828.25;;;27.44;38.36
3796;BME280;1913;50.660;7.834;2023-06-26T12:31:32;154997.13;;;28.12;38.39
3796;BME280;1913;50.660;7.834;2023-06-26T12:33:58;154965.38;;;28.00;39.04
3796;BME280;1913;50.660;7.834;2023-06-26T12:36:23;154768.59;;;27.20;38.56
3796;BME280;1913;50.660;7.834;2023-06-26T12:38:49;154743.16;;;27.10;36.24
3796;BME280;1913;50.660;7.834;2023-06-26T12:41:15;154712.72;;;26.98;36.84
3796;BME280;1913;50.660;7.834;2023-06-26T12:43:41;154824.47;;;27.43;37.33
3796;BME280;1913;50.660;7.834;2023-06-26T12:46:06;154719.06;;;27.01;37.79
3796;BME280;1913;50.660;7.834;2023-06-26T12:48:38;154829.50;;;27.45;38.42
3796;BME280;1913;50.660;7.834;2023-06-26T12:51:12;154774.94;;;27.23;40.52
3796;BME280;1913;50.660;7.834;2023-06-26T12:53:38;154568.03;;;26.40;38.76
3796;BME280;1913;50.660;7.834;2023-06-26T12:56:08;154655.59;;;26.75;38.66
3796;BME280;1913;50.660;7.834;2023-06-26T12:58:37;154702.56;;;26.94;36.86
3796;BME280;1913;50.660;7.834;2023-06-26T13:01:07;154828.25;;;27.44;36.76
3796;BME280;1913;50.660;7.834;2023-06-26T13:03:38;154815.59;;;27.39;38.72
3796;BME280;1913;50.660;7.834;2023-06-26T13:06:04;154858.69;;;27.57;38.39
3796;BME280;1913;50.660;7.834;2023-06-26T13:08:29;154739.38;;;27.09;40.15
3796;BME280;1913;50.660;7.834;2023-06-26T13:10:55;154908.28;;;27.77;41.52
3796;BME280;1913;50.660;7.834;2023-06-26T13:13:20;154802.84;;;27.34;40.58
3796;BME280;1913;50.660;7.834;2023-06-26T13:15:47;154713.97;;;26.98;41.17
3796;BME280;1913;50.660;7.834;2023-06-26T13:18:12;154679.72;;;26.85;41.42
3796;BME280;1913;50.660;7.834;2023-06-26T13:20:37;154529.94;;;26.24;42.35
3796;BME280;1913;50.660;7.834;2023-06-26T13:23:03;154370.09;;;25.60;43.80
3796;BME280;1913;50.660;7.834;2023-06-26T13:25:29;154394.22;;;25.70;44.07
3796;BME280;1913;50.660;7.834;2023-06-26T13:27:55;154514.78;;;26.18;44.24
3796;BME280;1913;50.660;7.834;2023-06-26T13:30:21;154550.28;;;26.33;41.31
3796;BME280;1913;50.660;7.834;2023-06-26T13:32:47;154555.34;;;26.35;41.69
3796;BME280;1913;50.660;7.834;2023-06-26T13:35:13;154585.84;;;26.47;42.79
3796;BME280;1913;50.660;7.834;2023-06-26T13:37:40;154616.28;;;26.59;42.97
3796;BME280;1913;50.660;7.834;2023-06-26T13:40:06;154745.72;;;27.11;40.66
3796;BME280;1913;50.660;7.834;2023-06-26T13:42:32;154698.75;;;26.92;40.62
3796;BME280;1913;50.660;7.834;2023-06-26T13:44:58;154698.75;;;26.92;39.56
3796;BME280;1913;50.660;7.834;2023-06-26T13:47:23;154811.75;;;27.38;38.91